Data for 08/07/2013

Time Sea-Level Adjusted Pressure Absolute Pressure Temperature Relative Humidity Dew Point   
(mb) (inHg) (mb) (inHg) (C) (F) (%) (C) (F)
00:05 1020 30.12 849 25.07 18.1 64.6 34 1.9 35.5
00:10 1020 30.12 849 25.07 18.1 64.6 33 1.9 35.4
00:15 1020 30.12 849 25.07 18.1 64.6 33 1.9 35.5
00:20 1020 30.12 849 25.07 18.1 64.6 33 1.8 35.2
00:25 1020 30.12 849 25.07 18.1 64.5 33 1.7 35.1
00:30 1020 30.12 849 25.07 18 64.4 33 1.8 35.3
00:35 1020 30.12 849 25.07 17.9 64.3 34 1.9 35.5
00:40 1020 30.12 849 25.07 17.8 64 34 2 35.7
00:45 1020 30.12 849 25.07 17.7 63.8 35 2.1 35.7
00:50 1020 30.12 849 25.07 17.6 63.7 35 2 35.6
00:55 1020 30.12 849 25.07 17.5 63.6 36 2.2 36
01:00 1020 30.12 849 25.07 17.5 63.4 35 2.1 35.8
01:05 1020 30.12 849 25.07 17.5 63.5 35 2.1 35.7
01:10 1020 30.12 849 25.07 17.5 63.4 35 2.1 35.8
01:15 1020 30.12 849 25.07 17.4 63.4 36 2.2 36
01:20 1020 30.12 849 25.07 17.4 63.3 36 2.2 35.9
01:25 1020 30.12 849 25.07 17.4 63.4 36 2.2 36
01:30 1020 30.12 849 25.07 17.4 63.3 36 2.2 36
01:35 1020 30.12 849 25.07 17.3 63.1 36 2.2 35.9
01:40 1020 30.12 849 25.07 17.3 63.1 36 2.3 36.1
01:45 1020 30.12 849 25.07 17.2 62.9 36 2.3 36.1
01:50 1020 30.12 849 25.07 17.2 62.9 37 2.4 36.4
01:55 1020 30.12 849 25.07 17 62.6 37 2.5 36.4
02:00 1020 30.12 849 25.07 16.9 62.5 37 2.4 36.2
02:05 1020 30.12 849 25.07 16.8 62.3 38 2.5 36.6
02:10 1020 30.12 849 25.07 16.8 62.2 38 2.5 36.5
02:15 1020 30.12 849 25.07 16.7 62 38 2.5 36.5
02:20 1020 30.12 849 25.07 16.6 61.9 39 2.8 37.1
02:25 1020 30.12 849 25.07 16.4 61.6 39 2.6 36.7
02:30 1020 30.12 849 25.07 16.5 61.6 39 2.5 36.5
02:35 1020 30.12 849 25.07 16.5 61.7 39 2.5 36.5
02:40 1020 30.12 849 25.07 16.5 61.7 39 2.6 36.6
02:45 1020 30.12 849 25.07 16.4 61.5 39 2.6 36.7
02:50 1020 30.12 849 25.07 16.3 61.3 39 2.6 36.7
02:55 1020 30.12 849 25.07 16.3 61.3 39 2.5 36.6
03:00 1020 30.12 849 25.07 16.4 61.4 39 2.5 36.5
03:05 1020 30.12 849 25.07 16.4 61.4 39 2.6 36.7
03:10 1020 30.12 849 25.07 16.2 61.2 40 2.7 36.9
03:15 1020 30.12 849 25.07 16.1 61 40 2.7 36.9
03:20 1020 30.12 849 25.07 16 60.7 41 2.8 37
03:25 1020 30.12 849 25.07 15.9 60.6 41 2.8 37
03:30 1020 30.12 849 25.07 15.8 60.4 41 2.8 37
03:35 1020 30.12 849 25.07 15.8 60.5 41 2.7 36.8
03:40 1020 30.12 849 25.07 15.9 60.6 41 2.8 37.1
03:45 1020 30.12 849 25.07 15.9 60.5 41 2.7 36.8
03:50 1020 30.12 849 25.07 15.8 60.5 41 2.7 36.9
03:55 1020 30.12 849 25.07 15.9 60.5 41 2.8 37.1
04:00 1020 30.12 849 25.07 15.9 60.5 41 2.9 37.1
04:05 1020 30.12 849 25.07 15.7 60.3 42 2.9 37.3
04:10 1020 30.12 849 25.07 15.6 60.1 42 2.8 37
04:15 1020 30.12 849 25.07 15.6 60.1 42 2.9 37.2
04:20 1020 30.12 849 25.07 15.5 59.9 43 3.1 37.6
04:25 1020 30.12 849 25.07 15.3 59.6 44 3.2 37.7
04:30 1020 30.12 849 25.07 15.1 59.1 45 3.2 37.8
04:35 1020 30.12 849 25.07 14.9 58.7 46 3.3 37.9
04:40 1020 30.12 849 25.07 14.6 58.3 46 3.2 37.7
04:45 1020 30.12 849 25.07 14.4 57.8 48 3.6 38.5
04:50 1020 30.12 849 25.07 13.9 57.1 49 3.6 38.5
04:55 1020 30.12 849 25.07 13.7 56.7 51 3.7 38.7
05:00 1020 30.12 849 25.07 13.5 56.2 52 3.8 38.8
05:05 1020 30.12 849 25.07 13.2 55.7 53 3.9 38.9
05:10 1020 30.12 849 25.07 12.9 55.3 54 3.8 38.9
05:15 1020 30.12 849 25.07 12.5 54.6 55 3.8 38.9
05:20 1020 30.12 849 25.07 12.3 54.1 55 3.6 38.6
05:25 1020 30.12 849 25.07 12.3 54.1 55 3.7 38.6
05:30 1020 30.12 849 25.07 12.1 53.9 56 3.6 38.5
05:35 1020 30.12 849 25.07 12.5 54.5 53 3.2 37.8
05:40 1020 30.12 849 25.07 12.7 54.8 54 3.7 38.6
05:45 1020 30.12 849 25.07 12.6 54.7 55 3.8 38.9
05:50 1020 30.12 850 25.1 12.6 54.8 53 3.5 38.2
05:55 1020 30.12 849 25.07 12.4 54.4 56 4 39.3
06:00 1020 30.12 850 25.1 12.2 53.9 56 3.6 38.6
06:05 1020 30.12 850 25.1 12.1 53.8 57 4 39.1
06:10 1020 30.12 850 25.1 12.3 54.2 54 3.3 38
06:15 1020 30.12 850 25.1 13 55.4 53 3.8 38.9
06:20 1021 30.15 850 25.1 13.2 55.8 53 4 39.1
06:25 1021 30.15 850 25.1 13.7 56.6 52 4.1 39.3
06:30 1021 30.15 850 25.1 14.1 57.3 50 3.9 39.1
06:35 1021 30.15 850 25.1 14.4 57.9 50 4 39.3
06:40 1021 30.15 850 25.1 14.8 58.7 48 4.1 39.4
06:45 1021 30.15 850 25.1 15.2 59.3 48 4.4 39.9
06:50 1021 30.15 850 25.1 15.2 59.3 48 4.3 39.7
06:55 1021 30.15 850 25.1 15.4 59.8 47 4.4 39.9
07:00 1021 30.15 850 25.1 15.8 60.4 47 4.6 40.2
07:05 1021 30.15 850 25.1 15.9 60.6 47 4.6 40.2
07:10 1021 30.15 850 25.1 16 60.9 45 4.4 39.9
07:15 1021 30.15 850 25.1 16.3 61.4 46 4.8 40.7
07:20 1021 30.15 850 25.1 17.1 62.8 42 4.1 39.4
07:25 1021 30.15 850 25.1 17.5 63.4 42 4.5 40.1
07:30 1021 30.15 850 25.1 18.2 64.8 39 4.4 39.8
07:35 1021 30.15 850 25.1 18.8 65.9 39 4.8 40.6
07:40 1021 30.15 850 25.1 18.9 66 38 4.4 40
07:45 1021 30.15 850 25.1 18.7 65.7 42 5.5 42
07:50 1021 30.15 850 25.1 18.7 65.6 38 4.4 39.9
07:55 1021 30.15 850 25.1 18.6 65.5 38 4.1 39.3
08:00 1021 30.15 850 25.1 19.1 66.3 36 3.7 38.7
08:05 1021 30.15 850 25.1 19.6 67.2 35 4 39.2
08:10 1021 30.15 850 25.1 19.9 67.7 36 4.3 39.8
08:15 1021 30.15 850 25.1 19.1 66.3 38 4.7 40.5
08:20 1021 30.15 850 25.1 18.8 65.9 39 4.5 40.2
08:25 1021 30.15 850 25.1 19.7 67.4 36 4.2 39.5
08:30 1021 30.15 850 25.1 19.8 67.6 36 4.5 40
08:35 1021 30.15 850 25.1 20.5 68.9 34 4.4 39.8
08:40 1021 30.15 850 25.1 20.6 69 34 4.3 39.7
08:45 1021 30.15 850 25.1 21 69.9 32 4 39.2
08:50 1021 30.15 850 25.1 21.7 71 31 4.2 39.6
08:55 1021 30.15 850 25.1 22.1 71.7 30 3.8 38.8
09:00 1021 30.15 850 25.1 22.2 71.9 31 4.3 39.7
09:05 1021 30.15 850 25.1 21.7 71 32 4.6 40.2
09:10 1021 30.15 850 25.1 21.3 70.3 33 4.4 39.9
09:15 1021 30.15 850 25.1 22 71.5 30 3.7 38.7
09:20 1021 30.15 850 25.1 22.1 71.9 30 3.7 38.7
09:25 1021 30.15 850 25.1 22.1 71.9 28 3.1 37.7
09:30 1021 30.15 850 25.1 22.5 72.5 29 3.8 38.9
09:35 1021 30.15 850 25.1 23.3 73.9 28 3.9 39.1
09:40 1021 30.15 850 25.1 23.2 73.8 27 3.6 38.6
09:45 1021 30.15 850 25.1 23.9 75 26 3.5 38.4
09:50 1021 30.15 850 25.1 23.9 75 28 4.3 39.7
09:55 1021 30.15 850 25.1 23 73.4 28 3.8 38.8
10:00 1021 30.15 850 25.1 23.1 73.6 27 3.2 37.8
10:05 1021 30.15 850 25.1 24.1 75.4 26 3.9 39
10:10 1021 30.15 850 25.1 24.5 76.1 26 3.9 39
10:15 1020 30.12 850 25.1 24.7 76.4 25 3.6 38.5
10:20 1020 30.12 850 25.1 24.6 76.2 26 3.8 38.8
10:25 1020 30.12 850 25.1 24.4 75.9 25 3.2 37.8
10:30 1020 30.12 850 25.1 24.4 75.9 24 2.8 37.1
10:35 1020 30.12 850 25.1 25.1 77.1 25 3.9 39.1
10:40 1020 30.12 850 25.1 25.4 77.6 24 3.6 38.5
10:45 1020 30.12 849 25.07 25.5 77.8 21 1.5 34.8
10:50 1020 30.12 849 25.07 25.6 78.1 21 1.6 34.9
10:55 1020 30.12 849 25.07 26.1 79 19 0.7 33.3
11:00 1020 30.12 849 25.07 26 78.8 17 -0.5 31.1
11:05 1020 30.12 849 25.07 25.8 78.4 16 -1.6 29.1
11:10 1020 30.12 849 25.07 25.8 78.5 19 0.6 33.1
11:15 1020 30.12 849 25.07 25.6 78.1 19 0.2 32.4
11:20 1020 30.12 849 25.07 25.8 78.4 18 0.1 32.2
11:25 1020 30.12 849 25.07 25.7 78.3 17 -1.1 29.9
11:30 1020 30.12 849 25.07 26 78.8 18 0.1 32.2
11:35 1020 30.12 849 25.07 26.3 79.3 19 1 33.8
11:40 1020 30.12 849 25.07 26.2 79.2 17 -0.3 31.4
11:45 1020 30.12 849 25.07 26.5 79.7 17 -0.1 31.8
11:50 1020 30.12 849 25.07 26.4 79.6 17 -0.4 31.3
11:55 1020 30.12 849 25.07 26.4 79.6 16 -1.3 29.7
12:00 1020 30.12 849 25.07 26.5 79.7 15 -2.2 28
12:05 1020 30.12 849 25.07 26.7 80 15 -2 28.5
12:10 1020 30.12 849 25.07 26.4 79.5 16 -1.6 29.1
12:15 1020 30.12 849 25.07 26.4 79.6 15 -2.3 27.8
12:20 1020 30.12 849 25.07 26.5 79.7 14 -2.4 27.6
12:25 1020 30.12 849 25.07 26.7 80.1 15 -1.4 29.4
12:30 1020 30.12 849 25.07 26.5 79.7 15 -2.3 27.8
12:35 1020 30.12 849 25.07 26.6 79.9 14 -2.6 27.3
12:40 1020 30.12 849 25.07 26.3 79.4 14 -2.7 27.1
12:45 1020 30.12 849 25.07 25.8 78.4 15 -2.6 27.3
12:50 1020 30.12 849 25.07 26.4 79.6 13 -4 24.8
12:55 1020 30.12 849 25.07 26.7 80.1 12 -4.5 23.8
13:00 1020 30.12 849 25.07 26.6 79.9 13 -4.3 24.3
13:05 1020 30.12 849 25.07 27.1 80.7 11 -5.3 22.4
13:10 1019 30.09 849 25.07 26.9 80.4 12 -4.5 23.9
13:15 1019 30.09 849 25.07 27.1 80.9 13 -3.3 26
13:20 1019 30.09 849 25.07 27.5 81.6 13 -2.9 26.8
13:25 1019 30.09 849 25.07 27.2 81 14 -2.7 27.1
13:30 1019 30.09 849 25.07 27.5 81.5 13 -3.2 26.2
13:35 1019 30.09 849 25.07 27.4 81.3 13 -3 26.6
13:40 1019 30.09 848 25.04 27.5 81.5 13 -3.1 26.4
13:45 1019 30.09 848 25.04 27.6 81.6 13 -2.7 27.1
13:50 1019 30.09 848 25.04 27.1 80.7 14 -2.9 26.8
13:55 1019 30.09 848 25.04 27.9 82.3 13 -2.7 27.1
14:00 1019 30.09 848 25.04 27.4 81.3 14 -2.6 27.4
14:05 1019 30.09 848 25.04 27.4 81.3 13 -2.9 26.7
14:10 1019 30.09 848 25.04 26.8 80.2 14 -2.2 28
14:15 1019 30.09 848 25.04 26.8 80.3 13 -3.4 26
14:20 1019 30.09 848 25.04 26.9 80.5 14 -2.6 27.3
14:25 1019 30.09 848 25.04 27.3 81.1 14 -2.7 27.1
14:30 1019 30.09 848 25.04 27.9 82.1 13 -2.4 27.7
14:35 1019 30.09 848 25.04 27.8 82 13 -2.5 27.5
14:40 1019 30.09 848 25.04 27.7 81.8 13 -2.6 27.3
14:45 1019 30.09 848 25.04 28.2 82.8 13 -2.6 27.4
14:50 1019 30.09 848 25.04 27.9 82.2 13 -2.5 27.4
14:55 1019 30.09 848 25.04 27.9 82.2 13 -3 26.6
15:00 1019 30.09 848 25.04 27.7 81.8 14 -2.3 27.8
15:05 1019 30.09 848 25.04 28.6 83.5 13 -2.1 28.1
15:10 1019 30.09 848 25.04 28.1 82.6 13 -2.6 27.3
15:15 1019 30.09 848 25.04 27.9 82.1 13 -2.9 26.7
15:20 1019 30.09 848 25.04 28.1 82.7 13 -2.6 27.3
15:25 1019 30.09 848 25.04 28.5 83.3 12 -3.3 26
15:30 1019 30.09 848 25.04 27.7 81.8 13 -2.6 27.3
15:35 1019 30.09 848 25.04 28.4 83.2 13 -2.2 28.1
15:40 1019 30.09 848 25.04 28.5 83.4 13 -2.6 27.2
15:45 1019 30.09 848 25.04 27.5 81.5 13 -3 26.6
15:50 1018 30.06 848 25.04 27.7 81.9 12 -3.7 25.4
15:55 1018 30.06 848 25.04 28.4 83.1 12 -3.4 26
16:00 1018 30.06 848 25.04 28.9 83.9 13 -1.8 28.8
16:05 1018 30.06 848 25.04 28 82.4 13 -2.6 27.3
16:10 1018 30.06 848 25.04 28.1 82.5 13 -2.8 26.9
16:15 1018 30.06 848 25.04 28 82.4 12 -3.3 26
16:20 1018 30.06 847 25.01 28 82.5 13 -3 26.6
16:25 1018 30.06 848 25.04 28.4 83.1 13 -2.8 26.9
16:30 1018 30.06 847 25.01 28.5 83.3 12 -3.2 26.3
16:35 1018 30.06 847 25.01 28.4 83 12 -3.5 25.7
16:40 1018 30.06 847 25.01 28.3 82.9 13 -2.8 27
16:45 1018 30.06 847 25.01 27.5 81.4 13 -3.2 26.3
16:50 1018 30.06 847 25.01 28.2 82.8 12 -3.4 26
16:55 1018 30.06 847 25.01 28.8 83.9 12 -3.5 25.6
17:00 1018 30.06 847 25.01 28.3 82.9 12 -3.3 26.1
17:05 1018 30.06 847 25.01 27.7 81.9 13 -3.1 26.4
17:10 1018 30.06 847 25.01 28.4 83.2 12 -2.9 26.8
17:15 1018 30.06 847 25.01 28.7 83.7 13 -1.8 28.7
17:20 1018 30.06 847 25.01 28.3 82.9 12 -3.1 26.4
17:25 1018 30.06 847 25.01 27.8 82 13 -2.7 27.1
17:30 1018 30.06 847 25.01 27.9 82.1 13 -3.2 26.2
17:35 1018 30.06 847 25.01 27.5 81.6 12 -4.1 24.6
17:40 1018 30.06 847 25.01 27.7 81.8 12 -4 24.8
17:45 1018 30.06 847 25.01 27.6 81.7 12 -3.6 25.6
17:50 1018 30.06 847 25.01 27.5 81.5 13 -3.4 25.8
17:55 1018 30.06 847 25.01 27.1 80.8 13 -3.8 25.1
18:00 1018 30.06 847 25.01 26.8 80.2 14 -2.8 27
18:05 1018 30.06 847 25.01 26.9 80.3 13 -3.2 26.3
18:10 1018 30.06 847 25.01 26.9 80.3 13 -3.6 25.5
18:15 1018 30.06 847 25.01 26.8 80.3 13 -3.3 26.1
18:20 1018 30.06 847 25.01 26.9 80.4 13 -3.2 26.2
18:25 1018 30.06 847 25.01 26.8 80.2 13 -3.9 24.9
18:30 1018 30.06 847 25.01 26.6 79.9 13 -3.7 25.3
18:35 1018 30.06 847 25.01 26.5 79.6 14 -2.9 26.8
18:40 1018 30.06 847 25.01 26.4 79.5 14 -3.4 26
18:45 1018 30.06 847 25.01 26.4 79.5 14 -3.1 26.4
18:50 1018 30.06 847 25.01 26.2 79.2 14 -3.2 26.2
18:55 1018 30.06 847 25.01 26.2 79.1 14 -3.3 26.1
19:00 1018 30.06 847 25.01 26.2 79.1 13 -4 24.9
19:05 1018 30.06 847 25.01 26.1 79.1 14 -3.2 26.2
19:10 1018 30.06 847 25.01 26 78.7 14 -3.1 26.4
19:15 1018 30.06 847 25.01 25.7 78.3 14 -3.3 26.1
19:20 1018 30.06 847 25.01 25.5 77.9 17 -1.2 29.9
19:25 1018 30.06 847 25.01 25.3 77.5 23 2.9 37.1
19:30 1018 30.06 847 25.01 24.1 75.3 29 5.2 41.3
19:35 1018 30.06 847 25.01 23.5 74.2 31 5.4 41.8
19:40 1018 30.06 847 25.01 23.3 73.9 31 5.5 42
19:45 1018 30.06 847 25.01 23.1 73.6 32 5.6 42
19:50 1018 30.06 847 25.01 22.9 73.2 32 5.6 42.1
19:55 1018 30.06 847 25.01 22.7 72.9 33 5.6 42.1
20:00 1018 30.06 848 25.04 22.6 72.7 33 5.6 42
20:05 1018 30.06 848 25.04 22.4 72.3 33 5.7 42.2
20:10 1018 30.06 848 25.04 22.2 72 33 5.6 42
20:15 1019 30.09 848 25.04 22.1 71.7 34 5.7 42.2
20:20 1019 30.09 848 25.04 21.9 71.3 34 5.5 42
20:25 1019 30.09 848 25.04 21.7 71.1 35 5.6 42.1
20:30 1019 30.09 848 25.04 21.6 70.9 35 5.6 42
20:35 1019 30.09 848 25.04 21.5 70.7 35 5.6 42.1
20:40 1019 30.09 848 25.04 21.4 70.5 35 5.5 42
20:45 1019 30.09 848 25.04 21.4 70.4 35 5.5 41.8
20:50 1019 30.09 848 25.04 21.4 70.4 35 5.4 41.6
20:55 1019 30.09 848 25.04 21.3 70.4 35 5.3 41.5
21:00 1019 30.09 848 25.04 21.2 70.1 35 5.3 41.6
21:05 1019 30.09 848 25.04 21.1 70 35 5.2 41.3
21:10 1019 30.09 848 25.04 21.1 69.9 35 5.3 41.6
21:15 1019 30.09 848 25.04 20.9 69.7 35 5.1 41.1
21:20 1019 30.09 848 25.04 21 69.7 35 5 41
21:25 1019 30.09 848 25.04 20.9 69.5 35 5.1 41.1
21:30 1019 30.09 848 25.04 20.7 69.3 35 5 41.1
21:35 1019 30.09 848 25.04 20.7 69.2 36 5.1 41.2
21:40 1019 30.09 848 25.04 20.6 69 36 5 40.9
21:45 1019 30.09 848 25.04 20.6 69.1 36 5.3 41.5
21:50 1019 30.09 848 25.04 20.4 68.8 38 5.9 42.7
21:55 1019 30.09 848 25.04 20.4 68.8 39 6.3 43.3
22:00 1019 30.09 848 25.04 20.3 68.6 40 6.5 43.7
22:05 1019 30.09 848 25.04 20.2 68.3 41 6.8 44.2
22:10 1019 30.09 848 25.04 20.1 68.2 42 6.9 44.5
22:15 1019 30.09 848 25.04 20 68 43 7.1 44.7
22:20 1019 30.09 848 25.04 20 67.9 43 7.3 45.2
22:25 1019 30.09 848 25.04 19.8 67.6 44 7.4 45.3
22:30 1019 30.09 848 25.04 19.7 67.4 45 7.4 45.4
22:35 1019 30.09 848 25.04 19.6 67.3 45 7.6 45.7
22:40 1019 30.09 848 25.04 19.6 67.2 45 7.5 45.6
22:45 1019 30.09 848 25.04 19.5 67 46 7.7 45.9
22:50 1019 30.09 848 25.04 19.4 66.9 47 7.8 46.1
22:55 1019 30.09 848 25.04 19.3 66.7 47 7.8 46.1
23:00 1019 30.09 848 25.04 19.2 66.6 47 7.9 46.2
23:05 1019 30.09 848 25.04 19.1 66.3 48 7.9 46.2
23:10 1019 30.09 848 25.04 19 66.1 48 8 46.3
23:15 1019 30.09 848 25.04 18.9 66 48 7.9 46.2
23:20 1019 30.09 848 25.04 18.8 65.8 49 8 46.4
23:25 1019 30.09 848 25.04 18.6 65.5 49 7.8 46
23:30 1019 30.09 848 25.04 18.6 65.5 49 7.8 46
23:35 1019 30.09 848 25.04 18.6 65.4 49 7.9 46.1
23:40 1019 30.09 848 25.04 18.5 65.3 49 7.7 45.9
23:45 1019 30.09 848 25.04 18.4 65.2 50 7.9 46.2
23:50 1019 30.09 848 25.04 18.2 64.8 50 7.9 46.1
23:55 1019 30.09 848 25.04 18.1 64.7 51 7.9 46.2
24:00 1019 30.09 848 25.04 18.1 64.5 51 7.9 46.1